createdAt,value
2022-11-18T00:00:45.604Z,10.18
2022-11-18T00:02:18.356Z,11.05
2022-11-18T00:03:50.923Z,10.40
2022-11-18T00:05:23.684Z,11.10
2022-11-18T00:06:56.429Z,12.50
2022-11-18T00:08:29.663Z,11.73
2022-11-18T00:10:02.425Z,12.13
2022-11-18T00:11:52.938Z,11.43
2022-11-18T00:13:43.455Z,10.40
2022-11-18T00:15:16.220Z,10.13
2022-11-18T00:16:50.255Z,11.07
2022-11-18T00:18:22.991Z,11.90
2022-11-18T00:19:55.948Z,11.68
2022-11-18T00:21:27.710Z,11.93
2022-11-18T00:23:00.728Z,11.77
2022-11-18T00:24:35.136Z,11.68
2022-11-18T00:26:09.807Z,12.05
2022-11-18T00:27:42.523Z,13.70
2022-11-18T00:29:15.047Z,15.88
2022-11-18T00:30:47.897Z,16.60
2022-11-18T00:32:20.629Z,16.75
2022-11-18T00:33:52.361Z,16.33
2022-11-18T00:35:25.114Z,17.60
2022-11-18T00:36:57.874Z,17.17
2022-11-18T00:38:29.811Z,19.33
2022-11-18T00:40:04.341Z,18.52
2022-11-18T00:41:54.401Z,18.13
2022-11-18T00:43:27.243Z,17.33
2022-11-18T00:44:59.011Z,16.88
2022-11-18T00:46:31.752Z,17.17
2022-11-18T00:48:03.824Z,15.70
2022-11-18T00:49:36.618Z,16.40
2022-11-18T00:51:12.616Z,18.23
2022-11-18T00:52:45.367Z,17.63
2022-11-18T00:54:18.414Z,18.67
2022-11-18T00:55:52.917Z,17.98
2022-11-18T00:57:25.638Z,20.33
2022-11-18T00:58:58.391Z,21.77
2022-11-18T01:00:31.140Z,21.02
2022-11-18T01:02:03.857Z,21.45
2022-11-18T01:03:35.715Z,20.95
2022-11-18T01:05:09.127Z,20.45
2022-11-18T01:06:41.441Z,21.52
2022-11-18T01:08:14.724Z,21.08
2022-11-18T01:09:47.474Z,20.25
2022-11-18T01:11:50.516Z,19.75
2022-11-18T01:13:23.759Z,18.73
2022-11-18T01:14:56.498Z,19.27
2022-11-18T01:16:30.760Z,18.98
2022-11-18T01:18:03.488Z,18.95
2022-11-18T01:19:36.360Z,19.10
2022-11-18T01:21:09.157Z,18.98
2022-11-18T01:22:41.880Z,18.88
2022-11-18T01:24:14.643Z,17.25
2022-11-18T01:25:49.654Z,16.67
2022-11-18T01:27:23.722Z,16.80
2022-11-18T01:28:57.188Z,16.63
2022-11-18T01:30:29.909Z,16.10
2022-11-18T01:32:23.520Z,16.48
2022-11-18T01:33:55.363Z,13.73
2022-11-18T01:35:28.097Z,13.85
2022-11-18T01:36:59.871Z,12.90
2022-11-18T01:38:32.626Z,12.55
2022-11-18T01:40:06.463Z,12.23
2022-11-18T01:41:38.259Z,12.10
2022-11-18T01:43:15.665Z,11.80
2022-11-18T01:45:09.476Z,11.15
2022-11-18T01:46:42.402Z,11.60
2022-11-18T01:48:20.418Z,13.05
2022-11-18T01:49:53.640Z,13.02
2022-11-18T01:51:31.921Z,16.73
2022-11-18T01:53:09.428Z,13.80
2022-11-18T01:54:46.635Z,14.25
2022-11-18T01:56:24.620Z,14.38
2022-11-18T01:58:04.523Z,13.65
2022-11-18T01:59:41.467Z,14.25
2022-11-18T02:01:14.590Z,14.63
2022-11-18T02:02:47.480Z,13.93
2022-11-18T02:04:20.195Z,13.27
2022-11-18T02:05:54.579Z,14.45
2022-11-18T02:07:26.878Z,13.80
2022-11-18T02:09:00.106Z,13.90
2022-11-18T02:10:33.105Z,13.30
2022-11-18T02:12:06.258Z,13.85
2022-11-18T02:13:39.069Z,12.77
2022-11-18T02:15:12.387Z,13.80
2022-11-18T02:17:03.520Z,13.40
2022-11-18T02:18:46.998Z,13.88
2022-11-18T02:20:32.698Z,12.45
2022-11-18T02:22:19.564Z,12.32
2022-11-18T02:24:18.156Z,12.35
2022-11-18T02:26:11.030Z,12.38
2022-11-18T02:28:20.410Z,12.88
2022-11-18T02:29:59.523Z,11.82
2022-11-18T02:31:35.363Z,11.73
2022-11-18T02:33:12.352Z,12.40
2022-11-18T02:34:50.934Z,11.70
2022-11-18T02:36:28.882Z,10.73
2022-11-18T02:38:05.800Z,12.70
2022-11-18T02:39:44.993Z,10.98
2022-11-18T02:41:21.070Z,10.63
2022-11-18T02:42:59.046Z,11.55
2022-11-18T02:44:31.598Z,11.27
2022-11-18T02:46:09.902Z,11.85
2022-11-18T02:47:45.915Z,11.80
2022-11-18T02:49:22.261Z,12.50
2022-11-18T02:50:56.564Z,13.05
2022-11-18T02:52:29.650Z,13.45
2022-11-18T02:54:06.412Z,13.82
2022-11-18T02:55:41.448Z,13.38
2022-11-18T02:57:16.245Z,14.43
2022-11-18T02:58:48.988Z,14.85
2022-11-18T03:00:20.791Z,14.43
2022-11-18T03:01:55.321Z,9.85
2022-11-18T03:03:30.116Z,9.65
2022-11-18T03:05:02.839Z,7.55
2022-11-18T03:06:38.700Z,6.93
2022-11-18T03:08:17.818Z,7.05
2022-11-18T03:09:53.551Z,5.70
2022-11-18T03:11:29.264Z,4.75
2022-11-18T03:13:10.514Z,4.35
2022-11-18T03:14:52.315Z,3.63
2022-11-18T03:16:30.274Z,3.67
2022-11-18T03:18:15.295Z,3.30
2022-11-18T03:20:00.284Z,2.55
2022-11-18T03:21:37.571Z,2.00
2022-11-18T03:23:15.550Z,1.90
2022-11-18T03:24:55.895Z,1.75
2022-11-18T03:26:32.703Z,2.80
2022-11-18T03:28:11.581Z,4.40
2022-11-18T03:29:47.101Z,7.32
2022-11-18T03:31:24.079Z,9.88
2022-11-18T03:33:01.473Z,14.63
2022-11-18T03:34:39.168Z,12.15
2022-11-18T03:36:15.181Z,11.82
2022-11-18T03:37:51.387Z,10.25
2022-11-18T03:39:26.249Z,12.32
2022-11-18T03:41:03.194Z,12.57
2022-11-18T03:42:40.438Z,12.57
2022-11-18T03:44:18.955Z,12.43
2022-11-18T03:45:55.994Z,12.23
2022-11-18T03:47:33.251Z,12.52
2022-11-18T03:49:08.410Z,12.18
2022-11-18T03:50:47.430Z,12.38
2022-11-18T03:52:24.324Z,12.55
2022-11-18T03:53:59.800Z,12.85
2022-11-18T03:55:38.404Z,11.75
2022-11-18T03:57:16.458Z,12.75
2022-11-18T03:58:54.333Z,12.38
2022-11-18T04:00:30.762Z,12.43
2022-11-18T04:02:09.741Z,12.35
2022-11-18T04:03:43.002Z,11.82
2022-11-18T04:05:17.556Z,11.55
2022-11-18T04:06:55.561Z,11.40
2022-11-18T04:08:33.390Z,11.27
2022-11-18T04:10:12.834Z,11.40
2022-11-18T04:12:02.769Z,11.25
2022-11-18T04:13:38.237Z,9.88
2022-11-18T04:15:11.724Z,10.77
2022-11-18T04:16:45.670Z,11.50
2022-11-18T04:18:18.387Z,11.57
2022-11-18T04:19:51.176Z,11.68
2022-11-18T04:21:23.936Z,11.75
2022-11-18T04:22:57.991Z,12.18
2022-11-18T04:24:30.718Z,12.43
2022-11-18T04:26:03.459Z,13.30
2022-11-18T04:27:35.282Z,12.77
2022-11-18T04:29:08.265Z,12.35
2022-11-18T04:30:40.983Z,13.00
2022-11-18T04:32:13.724Z,12.15
2022-11-18T04:33:45.515Z,12.05
2022-11-18T04:35:18.350Z,12.13
2022-11-18T04:36:51.069Z,12.05
2022-11-18T04:38:25.150Z,11.52
2022-11-18T04:39:56.881Z,11.32
2022-11-18T04:41:43.558Z,11.82
2022-11-18T04:43:16.258Z,10.85
2022-11-18T04:44:49.007Z,10.90
2022-11-18T04:46:21.864Z,10.95
2022-11-18T04:48:00.313Z,10.88
2022-11-18T04:49:36.754Z,11.43
2022-11-18T04:51:08.512Z,11.43
2022-11-18T04:52:41.238Z,11.90
2022-11-18T04:54:15.309Z,12.40
2022-11-18T04:55:48.036Z,11.63
2022-11-18T04:57:19.987Z,12.30
2022-11-18T04:58:52.756Z,12.60
2022-11-18T05:00:25.485Z,12.13
2022-11-18T05:02:00.803Z,12.38
2022-11-18T05:03:33.519Z,11.43
2022-11-18T05:05:07.091Z,11.93
2022-11-18T05:06:38.845Z,11.27
2022-11-18T05:08:11.563Z,10.80
2022-11-18T05:09:45.671Z,12.00
2022-11-18T05:11:36.055Z,11.20
2022-11-18T05:13:07.797Z,11.88
2022-11-18T05:14:44.008Z,13.32
2022-11-18T05:16:19.009Z,13.68
2022-11-18T05:17:52.437Z,12.88
2022-11-18T05:19:24.479Z,12.60
2022-11-18T05:20:57.183Z,12.52
2022-11-18T05:22:29.895Z,12.32
2022-11-18T05:24:01.944Z,13.00
2022-11-18T05:25:36.825Z,12.27
2022-11-18T05:27:09.556Z,12.18
2022-11-18T05:28:42.304Z,12.05
2022-11-18T05:30:15.375Z,12.40
2022-11-18T05:31:47.999Z,11.95
2022-11-18T05:33:20.726Z,11.68
2022-11-18T05:34:53.476Z,11.88
2022-11-18T05:36:26.690Z,12.18
2022-11-18T05:37:59.414Z,12.00
2022-11-18T05:39:33.632Z,11.98
2022-11-18T05:41:08.360Z,12.00
2022-11-18T05:42:58.757Z,11.55
2022-11-18T05:44:30.502Z,12.15
2022-11-18T05:46:03.695Z,11.20
2022-11-18T05:47:56.391Z,12.55
2022-11-18T05:49:29.122Z,13.50
2022-11-18T05:51:01.823Z,13.20
2022-11-18T05:52:34.549Z,13.48
2022-11-18T05:54:10.520Z,13.05
2022-11-18T05:55:48.927Z,14.88
2022-11-18T05:57:22.958Z,15.15
2022-11-18T05:58:55.941Z,15.05
2022-11-18T06:00:28.111Z,15.38
2022-11-18T06:02:04.056Z,15.05
2022-11-18T06:03:39.378Z,15.25
2022-11-18T06:05:13.174Z,14.80
2022-11-18T06:06:48.168Z,15.63
2022-11-18T06:08:22.163Z,14.82
2022-11-18T06:10:05.223Z,14.80
2022-11-18T06:11:41.450Z,15.82
2022-11-18T06:13:18.650Z,14.73
2022-11-18T06:14:55.240Z,16.00
2022-11-18T06:16:35.328Z,14.80
2022-11-18T06:18:17.280Z,15.00
2022-11-18T06:19:50.256Z,13.23
2022-11-18T06:21:23.360Z,13.38
2022-11-18T06:22:58.208Z,13.48
2022-11-18T06:24:31.118Z,13.77
2022-11-18T06:26:04.000Z,14.02
2022-11-18T06:27:36.804Z,14.85
2022-11-18T06:29:13.610Z,14.65
2022-11-18T06:30:46.474Z,14.60
2022-11-18T06:32:19.202Z,14.07
2022-11-18T06:33:51.914Z,12.95
2022-11-18T06:35:24.752Z,13.10
2022-11-18T06:36:57.502Z,12.23
2022-11-18T06:38:30.416Z,11.80
2022-11-18T06:40:03.266Z,11.55
2022-11-18T06:41:36.322Z,11.32
2022-11-18T06:43:27.407Z,12.27
2022-11-18T06:45:01.957Z,11.18
2022-11-18T06:46:52.401Z,11.05
2022-11-18T06:48:25.123Z,11.73
2022-11-18T06:49:57.824Z,10.20
2022-11-18T06:51:30.877Z,9.73
2022-11-18T06:53:03.577Z,7.85
2022-11-18T06:54:36.297Z,7.88
2022-11-18T06:56:10.609Z,8.20
2022-11-18T06:57:43.346Z,8.05
2022-11-18T06:59:22.105Z,7.93
2022-11-18T07:00:56.395Z,8.20
2022-11-18T07:02:29.270Z,8.52
2022-11-18T07:04:03.261Z,7.93
2022-11-18T07:05:35.986Z,8.85
2022-11-18T07:07:09.183Z,8.30
2022-11-18T07:08:42.941Z,7.22
2022-11-18T07:10:15.905Z,7.10
2022-11-18T07:11:48.628Z,5.97
2022-11-18T07:13:20.366Z,5.70
2022-11-18T07:14:53.066Z,5.60
2022-11-18T07:16:28.230Z,6.28
2022-11-18T07:18:01.007Z,6.03
2022-11-18T07:19:35.989Z,5.88
2022-11-18T07:21:11.350Z,5.20
2022-11-18T07:22:44.064Z,4.88
2022-11-18T07:24:17.235Z,3.88
2022-11-18T07:25:49.967Z,4.50
2022-11-18T07:27:22.692Z,4.63
2022-11-18T07:28:55.383Z,3.60
2022-11-18T07:30:28.132Z,3.33
2022-11-18T07:32:02.411Z,3.25
2022-11-18T07:33:35.739Z,2.78
2022-11-18T07:35:09.164Z,3.00
2022-11-18T07:36:41.915Z,3.00
2022-11-18T07:38:14.636Z,2.80
2022-11-18T07:39:47.344Z,2.47
2022-11-18T07:41:21.731Z,2.60
2022-11-18T07:42:55.044Z,3.42
2022-11-18T07:44:27.748Z,3.10
2022-11-18T07:46:00.559Z,2.08
2022-11-18T07:47:36.469Z,2.00
2022-11-18T07:49:09.777Z,1.70
2022-11-18T07:50:47.015Z,1.70
2022-11-18T07:52:20.040Z,1.52
2022-11-18T07:53:52.919Z,1.60
2022-11-18T07:55:30.864Z,1.17
2022-11-18T07:57:04.917Z,1.17
2022-11-18T07:58:38.503Z,1.20
2022-11-18T08:00:12.296Z,1.00
2022-11-18T08:01:45.118Z,1.13
2022-11-18T08:03:18.637Z,1.02
2022-11-18T08:04:51.438Z,1.00
2022-11-18T08:06:24.575Z,0.80
2022-11-18T08:07:58.099Z,1.00
2022-11-18T08:09:30.820Z,0.80
2022-11-18T08:11:05.971Z,0.90
2022-11-18T08:12:38.727Z,0.90
2022-11-18T08:14:11.434Z,1.00
2022-11-18T08:15:44.774Z,1.00
2022-11-18T08:17:17.522Z,0.95
2022-11-18T08:18:52.058Z,0.80
2022-11-18T08:20:27.145Z,0.90
2022-11-18T08:21:59.855Z,0.90
2022-11-18T08:23:37.387Z,0.98
2022-11-18T08:25:13.613Z,0.80
2022-11-18T08:26:46.334Z,1.00
2022-11-18T08:28:19.123Z,1.10
2022-11-18T08:29:51.882Z,1.23
2022-11-18T08:31:27.385Z,1.05
2022-11-18T08:33:00.108Z,0.80
2022-11-18T08:34:34.231Z,1.30
2022-11-18T08:36:08.567Z,2.80
2022-11-18T08:37:41.398Z,2.40
2022-11-18T08:39:15.132Z,2.00
2022-11-18T08:40:49.035Z,3.35
2022-11-18T08:42:24.517Z,3.78
2022-11-18T08:43:56.800Z,3.10
2022-11-18T08:45:29.568Z,2.13
2022-11-18T08:47:02.654Z,1.52
2022-11-18T08:48:35.437Z,1.30
2022-11-18T08:50:11.959Z,1.20
2022-11-18T08:51:44.889Z,1.35
2022-11-18T08:53:17.658Z,1.40
2022-11-18T08:54:50.369Z,1.13
2022-11-18T08:56:24.656Z,1.30
2022-11-18T08:57:57.362Z,1.50
2022-11-18T08:59:30.184Z,2.42
2022-11-18T09:01:06.145Z,2.90
2022-11-18T09:02:38.924Z,3.00
2022-11-18T09:04:12.244Z,2.78
2022-11-18T09:05:46.351Z,2.00
2022-11-18T09:07:19.229Z,1.40
2022-11-18T09:08:52.206Z,2.90
2022-11-18T09:10:24.928Z,2.25
2022-11-18T09:11:57.653Z,2.10
2022-11-18T09:15:24.023Z,2.70
2022-11-18T09:16:56.726Z,1.48
2022-11-18T09:18:30.119Z,1.20
2022-11-18T09:20:02.827Z,1.30
2022-11-18T09:21:40.826Z,1.40
2022-11-18T09:23:13.755Z,1.33
2022-11-18T09:24:46.465Z,1.52
2022-11-18T09:26:22.585Z,1.48
2022-11-18T09:27:55.746Z,1.30
2022-11-18T09:29:28.466Z,1.40
2022-11-18T09:31:04.363Z,1.30
2022-11-18T09:32:37.115Z,1.40
2022-11-18T09:34:10.250Z,1.30
2022-11-18T09:35:43.224Z,1.50
2022-11-18T09:37:17.312Z,1.50
2022-11-18T09:38:53.221Z,1.63
2022-11-18T09:40:26.342Z,1.73
2022-11-18T09:42:14.519Z,1.60
2022-11-18T09:43:58.275Z,1.30
2022-11-18T09:45:38.026Z,1.30
2022-11-18T09:47:21.654Z,1.20
2022-11-18T09:49:13.809Z,1.30
2022-11-18T09:50:50.880Z,1.80
2022-11-18T09:52:34.294Z,2.30
2022-11-18T09:54:13.273Z,1.90
2022-11-18T09:55:46.682Z,1.77
2022-11-18T09:57:22.076Z,2.15
2022-11-18T09:58:55.304Z,2.67
2022-11-18T10:00:30.685Z,2.10
2022-11-18T10:02:23.500Z,2.63
2022-11-18T10:03:56.547Z,2.58
2022-11-18T10:05:32.741Z,2.30
2022-11-18T10:07:14.253Z,2.27
2022-11-18T10:08:59.844Z,1.92
2022-11-18T10:10:42.665Z,2.00
2022-11-18T10:12:24.675Z,1.65
2022-11-18T10:14:10.995Z,2.38
2022-11-18T10:15:53.188Z,3.35
2022-11-18T10:17:37.755Z,3.40
2022-11-18T10:19:25.306Z,3.83
2022-11-18T10:21:04.442Z,3.20
2022-11-18T10:22:47.233Z,3.00
2022-11-18T10:24:23.490Z,2.80
2022-11-18T10:25:56.560Z,2.58
2022-11-18T10:27:40.490Z,2.30
2022-11-18T10:29:13.297Z,1.85
2022-11-18T10:30:46.044Z,2.37
2022-11-18T10:32:19.090Z,2.15
2022-11-18T10:33:59.900Z,2.05
2022-11-18T10:35:34.603Z,2.03
2022-11-18T10:37:13.091Z,1.98
2022-11-18T10:38:49.681Z,1.70
2022-11-18T10:40:29.496Z,1.70
2022-11-18T10:42:05.436Z,1.93
2022-11-18T10:43:50.083Z,1.80
2022-11-18T10:45:27.667Z,1.87
2022-11-18T10:47:26.100Z,1.80
2022-11-18T10:49:16.316Z,2.00
2022-11-18T10:52:53.271Z,2.17
2022-11-18T10:54:26.014Z,2.80
2022-11-18T10:56:02.387Z,2.20
2022-11-18T10:57:39.012Z,2.70
2022-11-18T10:59:25.012Z,1.83
2022-11-18T11:01:07.519Z,2.03
2022-11-18T11:01:48.059Z,3.10
2022-11-18T11:02:42.143Z,1.90
2022-11-18T11:04:23.325Z,1.80
2022-11-18T11:06:31.564Z,1.53
2022-11-18T11:08:34.673Z,1.70
2022-11-18T11:10:10.169Z,1.75
2022-11-18T11:11:58.788Z,1.93
2022-11-18T11:13:33.423Z,1.80
2022-11-18T11:15:11.495Z,1.60
2022-11-18T11:16:49.715Z,1.80
2022-11-18T11:18:42.996Z,2.00
2022-11-18T11:20:21.356Z,1.93
2022-11-18T11:21:54.260Z,1.63
2022-11-18T11:23:27.584Z,1.90
2022-11-18T11:25:00.434Z,1.60
2022-11-18T11:28:38.146Z,1.87
2022-11-18T11:30:29.011Z,1.60
2022-11-18T11:32:11.875Z,2.43
2022-11-18T11:33:53.766Z,2.00
2022-11-18T11:35:31.036Z,3.13
2022-11-18T11:37:12.619Z,2.50
2022-11-18T11:39:01.339Z,2.27
2022-11-18T11:40:41.910Z,2.60
2022-11-18T11:42:25.855Z,2.57
2022-11-18T11:44:20.627Z,2.33
2022-11-18T11:46:10.240Z,1.80
2022-11-18T11:47:56.784Z,1.70
2022-11-18T11:49:33.612Z,1.60
2022-11-18T11:51:17.084Z,1.60
2022-11-18T11:53:05.133Z,1.60
2022-11-18T11:54:47.341Z,1.93
2022-11-18T11:56:27.967Z,1.80
2022-11-18T11:58:10.040Z,1.87
2022-11-18T11:59:53.199Z,1.90
2022-11-18T12:01:34.927Z,1.83
2022-11-18T12:03:22.185Z,1.70
2022-11-18T12:04:58.722Z,1.57
2022-11-18T12:06:31.579Z,1.70
2022-11-18T12:08:07.839Z,2.07
2022-11-18T12:10:07.694Z,1.57
2022-11-18T12:11:48.095Z,1.60
2022-11-18T12:13:34.804Z,1.63
2022-11-18T12:15:26.466Z,1.53
2022-11-18T12:17:08.003Z,1.50
2022-11-18T12:18:44.446Z,1.50
2022-11-18T12:20:40.556Z,1.50
2022-11-18T12:22:13.890Z,1.70
2022-11-18T12:24:22.536Z,1.40
2022-11-18T12:26:09.369Z,1.50
2022-11-18T12:28:00.520Z,1.77
2022-11-18T12:29:41.952Z,1.90
2022-11-18T12:31:35.340Z,1.83
2022-11-18T12:33:16.429Z,1.30
2022-11-18T12:34:59.504Z,1.30
2022-11-18T12:36:33.943Z,1.10
2022-11-18T12:38:06.919Z,1.20
2022-11-18T12:39:50.227Z,1.40
2022-11-18T12:42:13.708Z,1.20
2022-11-18T12:44:07.806Z,1.13
2022-11-18T12:46:01.451Z,1.20
2022-11-18T12:47:57.993Z,1.47
2022-11-18T12:50:10.289Z,1.30
2022-11-18T12:51:44.234Z,1.00
2022-11-18T12:53:40.118Z,1.00
2022-11-18T12:55:17.259Z,0.90
2022-11-18T12:56:51.213Z,1.30
2022-11-18T12:58:27.192Z,1.27
2022-11-18T13:00:00.469Z,1.93
2022-11-18T13:01:35.301Z,1.10
2022-11-18T13:03:08.078Z,1.40
2022-11-18T13:04:45.817Z,1.10
2022-11-18T13:06:25.064Z,1.30
2022-11-18T13:08:14.739Z,1.37
2022-11-18T13:09:47.508Z,1.47
2022-11-18T13:11:38.579Z,1.40
2022-11-18T13:13:22.758Z,1.60
2022-11-18T13:15:15.055Z,1.70
2022-11-18T13:17:05.975Z,1.50
2022-11-18T13:18:49.461Z,1.23
2022-11-18T13:20:24.560Z,1.30
2022-11-18T13:22:16.200Z,1.87
2022-11-18T13:24:00.426Z,1.53
2022-11-18T13:25:33.461Z,1.50
2022-11-18T13:27:06.619Z,1.30
2022-11-18T13:28:45.978Z,1.50
2022-11-18T13:30:20.286Z,1.40
2022-11-18T13:32:01.799Z,1.23
2022-11-18T13:33:37.022Z,1.40
2022-11-18T13:35:15.184Z,1.50
2022-11-18T13:36:49.601Z,1.97
2022-11-18T13:38:28.364Z,1.47
2022-11-18T13:40:01.616Z,1.60
2022-11-18T13:41:36.317Z,1.83
2022-11-18T13:43:11.870Z,1.27
2022-11-18T13:44:47.757Z,1.40
2022-11-18T13:46:23.282Z,1.30
2022-11-18T13:48:01.515Z,1.23
2022-11-18T13:49:48.922Z,1.50
2022-11-18T13:51:24.327Z,1.47
2022-11-18T13:53:08.442Z,1.40
2022-11-18T13:54:41.874Z,1.50
2022-11-18T13:56:20.107Z,1.30
2022-11-18T13:58:03.190Z,1.70
2022-11-18T13:59:35.954Z,1.60
2022-11-18T14:01:16.218Z,1.53
2022-11-18T14:02:57.453Z,1.80
2022-11-18T14:04:32.790Z,1.60
2022-11-18T14:06:05.867Z,1.80
2022-11-18T14:07:39.547Z,1.80
2022-11-18T14:09:23.561Z,1.80
2022-11-18T14:10:56.938Z,1.30
2022-11-18T14:12:32.347Z,1.60
2022-11-18T14:14:05.122Z,1.60
2022-11-18T14:15:43.503Z,1.60
2022-11-18T14:17:19.512Z,1.53
2022-11-18T14:18:53.680Z,1.50
2022-11-18T14:20:27.541Z,1.63
2022-11-18T14:22:07.403Z,2.00
2022-11-18T14:23:45.066Z,2.43
2022-11-18T14:25:19.697Z,4.03
2022-11-18T14:26:52.412Z,3.63
2022-11-18T14:28:28.236Z,3.73
2022-11-18T14:30:01.012Z,3.00
2022-11-18T14:31:33.722Z,2.60
2022-11-18T14:33:21.927Z,2.10
2022-11-18T14:35:00.458Z,2.00
2022-11-18T14:36:33.222Z,1.90
2022-11-18T14:38:35.947Z,1.80
2022-11-18T14:40:06.682Z,1.77
2022-11-18T14:41:56.004Z,1.97
2022-11-18T14:43:29.065Z,1.80
2022-11-18T14:45:02.379Z,1.90
2022-11-18T14:46:36.158Z,2.20
2022-11-18T14:48:12.359Z,2.10
2022-11-18T14:49:45.089Z,1.80
2022-11-18T14:51:19.203Z,1.97
2022-11-18T14:52:51.931Z,1.40
2022-11-18T14:54:27.611Z,1.37
2022-11-18T14:56:01.263Z,1.40
2022-11-18T14:57:34.055Z,1.60
2022-11-18T14:59:06.889Z,1.30
2022-11-18T15:00:40.203Z,1.30
2022-11-18T15:02:15.923Z,1.60
2022-11-18T15:03:48.655Z,1.35
2022-11-18T15:05:21.389Z,1.67
2022-11-18T15:06:56.044Z,1.50
2022-11-18T15:08:28.791Z,1.60
2022-11-18T15:10:01.524Z,1.60
2022-11-18T15:11:34.448Z,1.60
2022-11-18T15:13:07.164Z,1.77
2022-11-18T15:14:39.876Z,1.42
2022-11-18T15:16:15.664Z,1.70
2022-11-18T15:17:52.637Z,1.40
2022-11-18T15:19:26.711Z,1.48
2022-11-18T15:20:59.439Z,1.50
2022-11-18T15:22:33.771Z,1.33
2022-11-18T15:24:06.832Z,1.30
2022-11-18T15:25:39.669Z,1.43
2022-11-18T15:27:12.420Z,1.40
2022-11-18T15:28:45.191Z,1.40
2022-11-18T15:30:18.306Z,1.57
2022-11-18T15:31:51.121Z,1.98
2022-11-18T15:33:23.868Z,2.20
2022-11-18T15:34:56.614Z,2.00
2022-11-18T15:36:29.354Z,1.90
2022-11-18T15:38:03.407Z,1.67
2022-11-18T15:39:36.144Z,1.50
2022-11-18T15:41:16.249Z,1.88
2022-11-18T15:42:52.054Z,1.60
2022-11-18T15:44:25.596Z,2.17
2022-11-18T15:45:58.891Z,2.00
2022-11-18T15:47:31.623Z,2.33
2022-11-18T15:49:04.497Z,2.20
2022-11-18T15:50:37.309Z,2.00
2022-11-18T15:52:10.943Z,2.00
2022-11-18T15:53:45.145Z,1.60
2022-11-18T15:55:18.024Z,2.20
2022-11-18T15:56:50.860Z,2.17
2022-11-18T15:58:23.599Z,2.30
2022-11-18T15:59:56.294Z,2.00
2022-11-18T16:01:30.898Z,2.13
2022-11-18T16:03:03.643Z,1.77
2022-11-18T16:04:36.361Z,1.48
2022-11-18T16:06:09.496Z,2.00
2022-11-18T16:07:42.343Z,4.65
2022-11-18T16:09:18.047Z,9.35
2022-11-18T16:11:13.863Z,6.13
2022-11-18T16:12:48.653Z,3.15
2022-11-18T16:14:23.044Z,2.30
2022-11-18T16:15:55.003Z,2.60
2022-11-18T16:17:27.739Z,1.92
2022-11-18T16:19:02.507Z,1.77
2022-11-18T16:20:35.641Z,2.08
2022-11-18T16:22:08.372Z,2.15
2022-11-18T16:23:41.283Z,1.90
2022-11-18T16:25:15.402Z,2.42
2022-11-18T16:26:48.443Z,1.90
2022-11-18T16:28:21.355Z,1.88
2022-11-18T16:29:54.102Z,2.10
2022-11-18T16:31:41.913Z,2.15
2022-11-18T16:33:16.222Z,2.58
2022-11-18T16:34:48.926Z,1.92
2022-11-18T16:36:26.891Z,1.85
2022-11-18T16:37:59.645Z,1.83
2022-11-18T16:39:32.543Z,1.85
2022-11-18T16:41:26.871Z,1.90
2022-11-18T16:42:59.642Z,1.70
2022-11-18T16:44:32.371Z,1.75
2022-11-18T16:46:09.157Z,1.88
2022-11-18T16:47:44.814Z,1.55
2022-11-18T16:49:19.677Z,2.10
2022-11-18T16:51:18.425Z,2.10
2022-11-18T16:52:51.116Z,2.00
2022-11-18T16:54:25.249Z,2.25
2022-11-18T16:56:03.543Z,1.95
2022-11-18T16:57:37.625Z,2.03
2022-11-18T16:59:14.539Z,2.13
2022-11-18T17:01:16.871Z,2.20
2022-11-18T17:02:39.962Z,2.28
2022-11-18T17:04:12.869Z,1.80
2022-11-18T17:05:45.570Z,2.40
2022-11-18T17:07:18.704Z,2.00
2022-11-18T17:08:51.702Z,2.10
2022-11-18T17:10:24.415Z,1.80
2022-11-18T17:11:58.406Z,2.05
2022-11-18T17:13:32.514Z,2.53
2022-11-18T17:15:05.954Z,3.20
2022-11-18T17:16:38.978Z,3.75
2022-11-18T17:18:11.716Z,2.65
2022-11-18T17:19:44.442Z,2.47
2022-11-18T17:21:18.944Z,2.75
2022-11-18T17:22:53.237Z,3.05
2022-11-18T17:24:26.977Z,2.60
2022-11-18T17:26:00.426Z,2.15
2022-11-18T17:27:33.210Z,2.58
2022-11-18T17:29:07.293Z,2.42
2022-11-18T17:30:40.003Z,2.92
2022-11-18T17:32:12.741Z,3.63
2022-11-18T17:33:46.358Z,4.05
2022-11-18T17:35:19.087Z,3.67
2022-11-18T17:36:51.822Z,3.97
2022-11-18T17:38:24.532Z,4.60
2022-11-18T17:39:57.261Z,6.70
2022-11-18T17:41:48.168Z,7.47
2022-11-18T17:43:20.882Z,6.75
2022-11-18T17:44:54.941Z,4.50
2022-11-18T17:46:29.302Z,2.95
2022-11-18T17:48:03.740Z,2.13
2022-11-18T17:49:36.695Z,2.10
2022-11-18T17:51:09.431Z,1.80
2022-11-18T17:52:42.159Z,1.85
2022-11-18T17:54:15.253Z,2.83
2022-11-18T17:55:48.337Z,3.22
2022-11-18T17:57:21.056Z,3.45
2022-11-18T17:58:53.797Z,3.78
2022-11-18T18:00:28.176Z,3.50
2022-11-18T18:02:01.209Z,3.38
2022-11-18T18:03:33.962Z,3.20
2022-11-18T18:05:07.599Z,2.90
2022-11-18T18:06:40.308Z,2.85
2022-11-18T18:08:13.051Z,2.55
2022-11-18T18:09:45.788Z,2.47
2022-11-18T18:11:20.243Z,2.88
2022-11-18T18:13:11.218Z,3.30
2022-11-18T18:14:43.919Z,3.30
2022-11-18T18:16:18.560Z,3.20
2022-11-18T18:17:51.359Z,3.03
2022-11-18T18:19:24.717Z,2.90
2022-11-18T18:21:01.775Z,3.10
2022-11-18T18:22:34.505Z,3.20
2022-11-18T18:24:08.018Z,2.95
2022-11-18T18:25:40.721Z,2.80
2022-11-18T18:27:13.435Z,3.50
2022-11-18T18:28:46.574Z,4.32
2022-11-18T18:30:19.533Z,4.68
2022-11-18T18:31:53.569Z,3.88
2022-11-18T18:33:26.312Z,3.30
2022-11-18T18:35:00.040Z,3.45
2022-11-18T18:36:33.048Z,3.83
2022-11-18T18:38:05.737Z,3.00
2022-11-18T18:39:38.475Z,3.00
2022-11-18T18:41:13.097Z,2.80
2022-11-18T18:42:45.814Z,2.78
2022-11-18T18:44:19.059Z,2.50
2022-11-18T18:46:09.581Z,2.45
2022-11-18T18:47:42.771Z,2.60
2022-11-18T18:49:20.159Z,2.42
2022-11-18T18:50:52.942Z,2.80
2022-11-18T18:52:25.675Z,2.50
2022-11-18T18:53:59.171Z,2.90
2022-11-18T18:55:31.914Z,2.60
2022-11-18T18:57:04.697Z,2.92
2022-11-18T18:58:36.627Z,2.70
2022-11-18T19:00:10.916Z,2.75
2022-11-18T19:01:43.680Z,2.80
2022-11-18T19:03:17.934Z,2.50
2022-11-18T19:04:50.641Z,2.75
2022-11-18T19:08:19.005Z,2.85
2022-11-18T19:09:51.715Z,2.97
2022-11-18T19:11:42.242Z,2.75
2022-11-18T19:13:15.025Z,3.17
2022-11-18T19:14:47.824Z,3.20
2022-11-18T19:16:20.530Z,3.10
2022-11-18T19:17:53.322Z,3.05
2022-11-18T19:19:46.118Z,2.80
2022-11-18T19:21:19.015Z,2.75
2022-11-18T19:22:51.907Z,2.40
2022-11-18T19:24:48.066Z,2.80
2022-11-18T19:26:17.570Z,2.78
2022-11-18T19:27:50.344Z,2.72
2022-11-18T19:29:25.776Z,2.33
2022-11-18T19:31:00.627Z,2.17
2022-11-18T19:32:36.324Z,2.20
2022-11-18T19:34:10.852Z,2.10
2022-11-18T19:35:45.112Z,2.30
2022-11-18T19:37:17.857Z,1.60
2022-11-18T19:38:51.414Z,1.50
2022-11-18T19:40:24.208Z,1.60
2022-11-18T19:41:56.934Z,1.58
2022-11-18T19:43:29.864Z,1.55
2022-11-18T19:45:02.770Z,1.50
2022-11-18T19:46:35.483Z,1.55
2022-11-18T19:48:08.224Z,1.58
2022-11-18T19:49:40.965Z,1.70
2022-11-18T19:51:16.400Z,1.52
2022-11-18T19:52:49.145Z,2.20
2022-11-18T19:54:21.930Z,2.22
2022-11-18T19:55:55.729Z,1.80
2022-11-18T19:57:28.431Z,1.40
2022-11-18T19:59:01.150Z,1.35
2022-11-18T20:00:33.862Z,1.65
2022-11-18T20:02:07.493Z,1.40
2022-11-18T20:03:40.321Z,1.42
2022-11-18T20:05:30.702Z,1.40
2022-11-18T20:07:05.085Z,1.40
2022-11-18T20:08:38.948Z,1.30
2022-11-18T20:10:11.671Z,1.27
2022-11-18T20:11:44.702Z,1.33
2022-11-18T20:13:17.582Z,1.50
2022-11-18T20:14:50.294Z,2.05
2022-11-18T20:16:24.079Z,2.63
2022-11-18T20:17:57.188Z,2.22
2022-11-18T20:19:29.917Z,1.90
2022-11-18T20:21:08.323Z,1.83
2022-11-18T20:22:42.410Z,1.90
2022-11-18T20:24:17.252Z,1.58
2022-11-18T20:25:49.993Z,1.40
2022-11-18T20:27:22.848Z,1.73
2022-11-18T20:28:57.783Z,1.50
2022-11-18T20:30:30.723Z,5.80
2022-11-18T20:32:03.435Z,5.03
2022-11-18T20:33:37.242Z,3.53
2022-11-18T20:35:10.379Z,2.13
2022-11-18T20:36:43.733Z,2.20
2022-11-18T20:38:17.853Z,1.73
2022-11-18T20:39:50.592Z,1.30
2022-11-18T20:41:24.243Z,1.23
2022-11-18T20:43:14.366Z,1.70
2022-11-18T20:44:47.100Z,1.70
2022-11-18T20:46:21.814Z,1.50
2022-11-18T20:47:54.694Z,1.90
2022-11-18T20:49:27.516Z,2.00
2022-11-18T20:51:03.754Z,1.90
2022-11-18T20:52:36.562Z,1.70
2022-11-18T20:54:11.587Z,2.50
2022-11-18T20:55:44.359Z,2.35
2022-11-18T20:57:17.214Z,1.67
2022-11-18T20:58:50.481Z,1.80
2022-11-18T21:00:23.430Z,1.52
2022-11-18T21:01:56.341Z,1.70
2022-11-18T21:03:29.080Z,1.50
2022-11-18T21:05:02.029Z,1.45
2022-11-18T21:06:34.775Z,1.40
2022-11-18T21:08:07.690Z,1.50
2022-11-18T21:09:41.743Z,1.50
2022-11-18T21:11:15.158Z,1.50
2022-11-18T21:13:05.324Z,1.60
2022-11-18T21:14:38.218Z,1.70
2022-11-18T21:16:10.043Z,2.40